UAL14 MMUN-KMCO
Flight info
| Callsign | UAL14 |
|---|---|
| Flight time | N/A |
| Altitude | 41000 |
| Route | NUDAL1A NUDAL UV106 PODON UG765 MAXIM Y262 TUNSL DCT KUTNE MUNGI1 |
| Aircraft | B772/H-SDE2E3FGHIJ5LORVWXY/LB1D1 |
Departure
| Time | 2026-04-27 02:18 |
|---|---|
| Airport | Cancún International Airport (MMUN) |
Arrival
| Time | N/A |
|---|---|
| Airport | Orlando International Airport (KMCO) |
| Time | Latitude | Longitude | Altitude | Speed | Heading |
|---|---|---|---|---|---|
| 2026-04-27 01:52 | 21.03587 | -86.86776 | 32 ft | 0 kts | 307° |
| 2026-04-27 02:06 | 21.03581 | -86.86768 | 32 ft | 3 kts | 308° |
| 2026-04-27 02:06 | 21.03569 | -86.86752 | 31 ft | 2 kts | 308° |
| 2026-04-27 02:06 | 21.03559 | -86.86738 | 29 ft | 3 kts | 298° |
| 2026-04-27 02:07 | 21.03552 | -86.86720 | 30 ft | 3 kts | 275° |
| 2026-04-27 02:07 | 21.03552 | -86.86704 | 28 ft | 3 kts | 242° |
| 2026-04-27 02:07 | 21.03562 | -86.86691 | 30 ft | 3 kts | 214° |
| 2026-04-27 02:07 | 21.03580 | -86.86680 | 32 ft | 3 kts | 209° |
| 2026-04-27 02:08 | 21.03592 | -86.86672 | 30 ft | 1 kts | 213° |
| 2026-04-27 02:08 | 21.03595 | -86.86670 | 31 ft | 0 kts | 213° |
| 2026-04-27 02:10 | 21.03594 | -86.86671 | 30 ft | 2 kts | 213° |
| 2026-04-27 02:10 | 21.03554 | -86.86698 | 32 ft | 12 kts | 213° |
| 2026-04-27 02:11 | 21.03480 | -86.86750 | 32 ft | 13 kts | 213° |
| 2026-04-27 02:11 | 21.03406 | -86.86803 | 32 ft | 13 kts | 213° |
| 2026-04-27 02:11 | 21.03348 | -86.86852 | 32 ft | 9 kts | 237° |
| 2026-04-27 02:11 | 21.03360 | -86.86915 | 32 ft | 9 kts | 303° |
| 2026-04-27 02:12 | 21.03398 | -86.86976 | 32 ft | 12 kts | 304° |
| 2026-04-27 02:12 | 21.03467 | -86.87084 | 32 ft | 21 kts | 303° |
| 2026-04-27 02:12 | 21.03548 | -86.87214 | 33 ft | 21 kts | 304° |
| 2026-04-27 02:12 | 21.03630 | -86.87344 | 33 ft | 21 kts | 304° |
| 2026-04-27 02:13 | 21.03711 | -86.87474 | 33 ft | 21 kts | 303° |
| 2026-04-27 02:13 | 21.03792 | -86.87604 | 33 ft | 21 kts | 303° |
| 2026-04-27 02:13 | 21.03873 | -86.87735 | 33 ft | 21 kts | 303° |
| 2026-04-27 02:13 | 21.03955 | -86.87862 | 33 ft | 21 kts | 304° |
| 2026-04-27 02:14 | 21.04036 | -86.87991 | 33 ft | 21 kts | 303° |
| 2026-04-27 02:14 | 21.04118 | -86.88121 | 33 ft | 21 kts | 304° |
| 2026-04-27 02:14 | 21.04199 | -86.88251 | 33 ft | 21 kts | 304° |
| 2026-04-27 02:14 | 21.04281 | -86.88381 | 33 ft | 21 kts | 304° |
| 2026-04-27 02:15 | 21.04362 | -86.88510 | 33 ft | 21 kts | 303° |
| 2026-04-27 02:15 | 21.04443 | -86.88641 | 34 ft | 21 kts | 304° |
| 2026-04-27 02:15 | 21.04524 | -86.88771 | 33 ft | 21 kts | 303° |
| 2026-04-27 02:15 | 21.04601 | -86.88895 | 33 ft | 18 kts | 303° |
| 2026-04-27 02:16 | 21.04640 | -86.88967 | 33 ft | 9 kts | 286° |
| 2026-04-27 02:16 | 21.04629 | -86.89007 | 32 ft | 1 kts | 233° |
| 2026-04-27 02:16 | 21.04626 | -86.89011 | 33 ft | 4 kts | 230° |
| 2026-04-27 02:16 | 21.04580 | -86.89053 | 32 ft | 9 kts | 212° |
| 2026-04-27 02:17 | 21.04523 | -86.89064 | 31 ft | 9 kts | 145° |
| 2026-04-27 02:17 | 21.04509 | -86.89048 | 32 ft | 0 kts | 126° |
| 2026-04-27 02:17 | 21.04506 | -86.89042 | 32 ft | 5 kts | 126° |
| 2026-04-27 02:17 | 21.04424 | -86.88913 | 32 ft | 47 kts | 123° |
| 2026-04-27 02:18 | 21.04073 | -86.88352 | 33 ft | 131 kts | 124° |
| 2026-04-27 02:18 | 21.03432 | -86.87352 | 243 ft | 182 kts | 124° |
| 2026-04-27 02:18 | 21.02728 | -86.86229 | 1291 ft | 179 kts | 123° |
| 2026-04-27 02:18 | 21.02025 | -86.85077 | 2229 ft | 193 kts | 123° |
| 2026-04-27 02:19 | 21.01252 | -86.83834 | 2989 ft | 209 kts | 123° |
| 2026-04-27 02:19 | 21.00430 | -86.82478 | 3675 ft | 227 kts | 119° |
| 2026-04-27 02:19 | 20.99704 | -86.80897 | 4329 ft | 245 kts | 114° |
| 2026-04-27 02:19 | 20.98972 | -86.79167 | 4880 ft | 263 kts | 115° |
| 2026-04-27 02:20 | 20.98131 | -86.77397 | 5030 ft | 273 kts | 117° |
| 2026-04-27 02:20 | 20.97252 | -86.75618 | 5099 ft | 274 kts | 117° |
| 2026-04-27 02:20 | 20.96377 | -86.73824 | 5576 ft | 273 kts | 114° |
| 2026-04-27 02:20 | 20.95989 | -86.72507 | 5995 ft | 278 kts | 95° |
| 2026-04-27 02:21 | 20.96366 | -86.69785 | 6843 ft | 284 kts | 75° |
| 2026-04-27 02:21 | 20.96800 | -86.67703 | 7464 ft | 288 kts | 77° |
| 2026-04-27 02:21 | 20.97181 | -86.65606 | 8252 ft | 286 kts | 77° |
| 2026-04-27 02:21 | 20.97563 | -86.63519 | 9111 ft | 287 kts | 77° |
| 2026-04-27 02:22 | 20.97953 | -86.61423 | 9983 ft | 288 kts | 77° |
| 2026-04-27 02:22 | 20.98357 | -86.59317 | 10744 ft | 290 kts | 74° |
| 2026-04-27 02:22 | 20.98956 | -86.57209 | 11172 ft | 305 kts | 69° |
| 2026-04-27 02:22 | 20.99634 | -86.54991 | 11494 ft | 322 kts | 70° |
| 2026-04-27 02:23 | 21.00304 | -86.52672 | 11820 ft | 340 kts | 71° |
| 2026-04-27 02:23 | 21.01015 | -86.50190 | 12148 ft | 358 kts | 71° |
| 2026-04-27 02:23 | 21.01766 | -86.47573 | 12504 ft | 375 kts | 71° |
| 2026-04-27 02:23 | 21.02540 | -86.44878 | 13042 ft | 383 kts | 71° |
| 2026-04-27 02:24 | 21.03326 | -86.42147 | 13601 ft | 385 kts | 70° |
| 2026-04-27 02:24 | 21.04120 | -86.39393 | 14118 ft | 388 kts | 70° |
| 2026-04-27 02:24 | 21.04920 | -86.36620 | 14671 ft | 390 kts | 70° |
| 2026-04-27 02:24 | 21.05721 | -86.33847 | 15297 ft | 392 kts | 70° |
| 2026-04-27 02:25 | 21.06531 | -86.31043 | 15950 ft | 396 kts | 70° |
| 2026-04-27 02:25 | 21.07350 | -86.28210 | 16614 ft | 399 kts | 70° |
| 2026-04-27 02:25 | 21.07895 | -86.26325 | 17059 ft | 401 kts | 70° |
| 2026-04-27 02:25 | 21.08998 | -86.22504 | 17968 ft | 402 kts | 70° |
| 2026-04-27 02:26 | 21.09545 | -86.20606 | 18394 ft | 403 kts | 70° |
| 2026-04-27 02:26 | 21.10371 | -86.17742 | 18987 ft | 403 kts | 70° |
| 2026-04-27 02:26 | 21.11201 | -86.14861 | 19492 ft | 406 kts | 70° |
| 2026-04-27 02:26 | 21.12309 | -86.11013 | 19982 ft | 414 kts | 70° |
| 2026-04-27 02:27 | 21.12891 | -86.09000 | 19965 ft | 424 kts | 70° |
| 2026-04-27 02:27 | 21.14053 | -86.04963 | 19968 ft | 431 kts | 70° |
| 2026-04-27 02:27 | 21.14648 | -86.02892 | 19962 ft | 431 kts | 70° |
| 2026-04-27 02:27 | 21.15808 | -85.98839 | 19955 ft | 429 kts | 70° |
| 2026-04-27 02:28 | 21.16400 | -85.96774 | 19954 ft | 429 kts | 70° |
| 2026-04-27 02:28 | 21.17263 | -85.93759 | 19959 ft | 428 kts | 70° |
| 2026-04-27 02:28 | 21.18136 | -85.90711 | 19961 ft | 428 kts | 70° |
| 2026-04-27 02:28 | 21.19009 | -85.87660 | 19960 ft | 428 kts | 70° |
| 2026-04-27 02:29 | 21.19882 | -85.84610 | 19960 ft | 428 kts | 70° |
| 2026-04-27 02:29 | 21.20753 | -85.81562 | 19962 ft | 429 kts | 70° |
| 2026-04-27 02:29 | 21.21627 | -85.78505 | 19962 ft | 429 kts | 70° |
| 2026-04-27 02:29 | 21.22501 | -85.75442 | 19963 ft | 430 kts | 70° |
| 2026-04-27 02:30 | 21.23373 | -85.72383 | 19961 ft | 430 kts | 70° |
| 2026-04-27 02:30 | 21.24247 | -85.69317 | 19964 ft | 430 kts | 70° |
| 2026-04-27 02:30 | 21.25122 | -85.66264 | 19964 ft | 426 kts | 69° |
| 2026-04-27 02:30 | 21.26259 | -85.63349 | 19961 ft | 423 kts | 58° |
| 2026-04-27 02:31 | 21.27881 | -85.60781 | 20246 ft | 420 kts | 47° |
| 2026-04-27 02:31 | 21.29846 | -85.58518 | 21116 ft | 408 kts | 39° |
| 2026-04-27 02:31 | 21.31973 | -85.56484 | 21724 ft | 412 kts | 38° |
| 2026-04-27 02:31 | 21.34126 | -85.54428 | 22339 ft | 416 kts | 38° |
| 2026-04-27 02:32 | 21.36289 | -85.52348 | 22941 ft | 420 kts | 38° |
| 2026-04-27 02:32 | 21.38473 | -85.50238 | 23521 ft | 425 kts | 38° |
| 2026-04-27 02:32 | 21.40679 | -85.48097 | 24014 ft | 429 kts | 38° |
| 2026-04-27 02:32 | 21.42899 | -85.45937 | 24519 ft | 433 kts | 38° |
| 2026-04-27 02:33 | 21.45136 | -85.43755 | 25036 ft | 436 kts | 38° |
| 2026-04-27 02:33 | 21.47390 | -85.41554 | 25545 ft | 440 kts | 38° |
| 2026-04-27 02:33 | 21.49662 | -85.39334 | 26041 ft | 444 kts | 38° |
| 2026-04-27 02:33 | 21.51951 | -85.37095 | 26544 ft | 448 kts | 38° |
| 2026-04-27 02:34 | 21.54234 | -85.34862 | 27033 ft | 451 kts | 38° |